sensor_id;sensor_type;location;lat;lon;timestamp;pressure;altitude;pressure_sealevel;temperature;humidity
29417;BME280;28421;51.030;4.006;2023-03-14T00:02:05;99082.53;;;10.24;72.54
29417;BME280;28421;51.030;4.006;2023-03-14T00:04:31;99044.78;;;10.12;72.13
29417;BME280;28421;51.030;4.006;2023-03-14T00:06:56;99048.53;;;10.05;72.61
29417;BME280;28421;51.030;4.006;2023-03-14T00:09:22;99031.63;;;9.98;72.50
29417;BME280;28421;51.030;4.006;2023-03-14T00:11:47;99035.13;;;9.98;72.95
29417;BME280;28421;51.030;4.006;2023-03-14T00:14:12;99073.69;;;10.17;73.03
29417;BME280;28421;51.030;4.006;2023-03-14T00:16:38;99040.31;;;9.93;73.35
29417;BME280;28421;51.030;4.006;2023-03-14T00:19:03;99069.97;;;10.11;73.62
29417;BME280;28421;51.030;4.006;2023-03-14T00:21:29;99048.78;;;9.96;73.57
29417;BME280;28421;51.030;4.006;2023-03-14T00:23:54;99047.16;;;9.89;73.76
29417;BME280;28421;51.030;4.006;2023-03-14T00:26:20;99046.28;;;9.95;73.66
29417;BME280;28421;51.030;4.006;2023-03-14T00:28:47;99035.78;;;9.93;73.99
29417;BME280;28421;51.030;4.006;2023-03-14T00:31:16;99082.13;;;10.27;73.82
29417;BME280;28421;51.030;4.006;2023-03-14T05:38:23;98924.47;;;9.89;91.70
29417;BME280;28421;51.030;4.006;2023-03-14T05:41:09;98896.13;;;9.62;92.12
29417;BME280;28421;51.030;4.006;2023-03-14T05:43:34;98888.28;;;9.67;92.23
29417;BME280;28421;51.030;4.006;2023-03-14T05:46:28;98872.03;;;9.55;92.08
29417;BME280;28421;51.030;4.006;2023-03-14T05:49:15;98894.16;;;9.44;93.80
29417;BME280;28421;51.030;4.006;2023-03-14T05:51:49;98957.16;;;9.80;94.67
29417;BME280;28421;51.030;4.006;2023-03-14T05:54:33;98941.13;;;9.66;94.88
29417;BME280;28421;51.030;4.006;2023-03-14T05:57:16;98912.09;;;9.43;95.01
29417;BME280;28421;51.030;4.006;2023-03-14T05:59:54;98915.78;;;9.49;95.46
29417;BME280;28421;51.030;4.006;2023-03-14T06:02:38;98946.88;;;9.70;95.55
29417;BME280;28421;51.030;4.006;2023-03-14T06:05:13;98952.47;;;9.68;95.06
29417;BME280;28421;51.030;4.006;2023-03-14T06:07:38;98965.16;;;9.28;96.07
29417;BME280;28421;51.030;4.006;2023-03-14T06:10:05;99008.53;;;8.92;95.63
29417;BME280;28421;51.030;4.006;2023-03-14T06:12:31;99037.56;;;8.62;94.74
29417;BME280;28421;51.030;4.006;2023-03-14T06:14:57;99020.78;;;8.33;94.75
29417;BME280;28421;51.030;4.006;2023-03-14T06:17:22;99047.09;;;8.16;95.00
29417;BME280;28421;51.030;4.006;2023-03-14T06:19:59;99057.25;;;7.86;95.30
29417;BME280;28421;51.030;4.006;2023-03-14T06:22:24;99086.41;;;7.75;96.01
29417;BME280;28421;51.030;4.006;2023-03-14T06:24:51;99108.50;;;7.83;96.22
29417;BME280;28421;51.030;4.006;2023-03-14T06:27:17;99105.44;;;7.86;97.04
29417;BME280;28421;51.030;4.006;2023-03-14T06:29:43;99083.91;;;7.66;96.72
29417;BME280;28421;51.030;4.006;2023-03-14T06:32:09;99137.81;;;7.63;96.50
29417;BME280;28421;51.030;4.006;2023-03-14T06:34:36;99163.16;;;7.46;95.99
29417;BME280;28421;51.030;4.006;2023-03-14T06:37:02;99176.25;;;7.34;94.90
29417;BME280;28421;51.030;4.006;2023-03-14T06:39:27;99165.66;;;7.05;94.68
29417;BME280;28421;51.030;4.006;2023-03-14T06:42:01;99172.00;;;6.97;94.89
29417;BME280;28421;51.030;4.006;2023-03-14T06:44:27;99219.31;;;7.25;95.06
29417;BME280;28421;51.030;4.006;2023-03-14T06:46:52;99234.53;;;7.24;95.06
29417;BME280;28421;51.030;4.006;2023-03-14T06:49:18;99221.75;;;7.19;94.48
29417;BME280;28421;51.030;4.006;2023-03-14T06:51:44;99208.13;;;6.93;93.76
29417;BME280;28421;51.030;4.006;2023-03-14T06:54:10;99232.47;;;7.05;94.13
29417;BME280;28421;51.030;4.006;2023-03-14T06:56:36;99237.06;;;6.89;94.69
29417;BME280;28421;51.030;4.006;2023-03-14T06:59:02;99280.16;;;7.01;94.59
29417;BME280;28421;51.030;4.006;2023-03-14T07:01:31;99283.66;;;7.02;94.09
29417;BME280;28421;51.030;4.006;2023-03-14T07:04:04;99294.34;;;7.02;94.29
29417;BME280;28421;51.030;4.006;2023-03-14T07:06:30;99295.91;;;6.96;94.29
29417;BME280;28421;51.030;4.006;2023-03-14T07:08:56;99263.78;;;6.75;94.42
29417;BME280;28421;51.030;4.006;2023-03-14T07:11:23;99277.59;;;6.78;94.56
29417;BME280;28421;51.030;4.006;2023-03-14T07:13:49;99280.38;;;6.70;94.72
29417;BME280;28421;51.030;4.006;2023-03-14T07:16:14;99297.69;;;6.89;95.18
29417;BME280;28421;51.030;4.006;2023-03-14T07:18:40;99298.97;;;6.78;95.45
29417;BME280;28421;51.030;4.006;2023-03-14T07:21:06;99309.84;;;6.77;95.51
29417;BME280;28421;51.030;4.006;2023-03-14T07:23:33;99304.97;;;6.65;96.00
29417;BME280;28421;51.030;4.006;2023-03-14T07:26:01;99329.94;;;6.72;96.47
29417;BME280;28421;51.030;4.006;2023-03-14T07:28:28;99336.25;;;6.86;97.01
29417;BME280;28421;51.030;4.006;2023-03-14T07:31:07;99380.94;;;6.92;98.09
29417;BME280;28421;51.030;4.006;2023-03-14T07:33:33;99359.03;;;6.82;98.25
29417;BME280;28421;51.030;4.006;2023-03-14T07:36:00;99398.00;;;6.91;98.79
29417;BME280;28421;51.030;4.006;2023-03-14T07:38:26;99410.25;;;6.86;99.20
29417;BME280;28421;51.030;4.006;2023-03-14T07:41:27;99413.63;;;6.80;99.35
29417;BME280;28421;51.030;4.006;2023-03-14T07:44:11;99423.97;;;6.97;99.27
29417;BME280;28421;51.030;4.006;2023-03-14T07:46:36;99408.53;;;6.55;98.22
29417;BME280;28421;51.030;4.006;2023-03-14T07:49:02;99410.91;;;6.50;97.88
29417;BME280;28421;51.030;4.006;2023-03-14T07:51:27;99389.16;;;6.38;96.41
29417;BME280;28421;51.030;4.006;2023-03-14T07:53:52;99432.34;;;6.42;95.18
29417;BME280;28421;51.030;4.006;2023-03-14T07:56:18;99431.53;;;6.41;94.79
29417;BME280;28421;51.030;4.006;2023-03-14T07:58:43;99426.91;;;6.35;94.43
29417;BME280;28421;51.030;4.006;2023-03-14T08:01:09;99476.59;;;6.59;94.56
29417;BME280;28421;51.030;4.006;2023-03-14T08:03:34;99516.22;;;6.70;94.03
29417;BME280;28421;51.030;4.006;2023-03-14T08:05:59;99477.50;;;6.52;93.48
29417;BME280;28421;51.030;4.006;2023-03-14T08:08:25;99463.16;;;6.30;92.28
29417;BME280;28421;51.030;4.006;2023-03-14T08:10:50;99473.00;;;6.29;92.72
29417;BME280;28421;51.030;4.006;2023-03-14T08:13:16;99525.94;;;6.48;92.00
29417;BME280;28421;51.030;4.006;2023-03-14T08:15:41;99510.66;;;6.34;92.22
29417;BME280;28421;51.030;4.006;2023-03-14T08:18:07;99529.34;;;6.34;91.38
29417;BME280;28421;51.030;4.006;2023-03-14T08:20:32;99554.03;;;6.36;91.47
29417;BME280;28421;51.030;4.006;2023-03-14T08:23:00;99593.28;;;6.59;90.81
29417;BME280;28421;51.030;4.006;2023-03-14T08:25:26;99546.56;;;6.32;90.90
29417;BME280;28421;51.030;4.006;2023-03-14T08:27:53;99596.75;;;6.59;90.41
29417;BME280;28421;51.030;4.006;2023-03-14T08:30:19;99579.72;;;6.37;90.32
29417;BME280;28421;51.030;4.006;2023-03-14T08:32:45;99575.69;;;6.41;91.16
29417;BME280;28421;51.030;4.006;2023-03-14T08:35:11;99592.25;;;6.37;91.01
29417;BME280;28421;51.030;4.006;2023-03-14T08:37:36;99621.75;;;6.66;92.09
29417;BME280;28421;51.030;4.006;2023-03-14T08:40:03;99602.63;;;6.32;91.16
29417;BME280;28421;51.030;4.006;2023-03-14T08:42:33;99617.84;;;6.23;90.84
29417;BME280;28421;51.030;4.006;2023-03-14T08:44:58;99662.34;;;6.39;91.20
29417;BME280;28421;51.030;4.006;2023-03-14T08:47:24;99671.75;;;6.18;91.34
29417;BME280;28421;51.030;4.006;2023-03-14T08:49:49;99682.72;;;6.32;91.54
29417;BME280;28421;51.030;4.006;2023-03-14T08:52:15;99644.91;;;6.12;91.85
29417;BME280;28421;51.030;4.006;2023-03-14T08:54:44;99653.63;;;6.06;91.57
29417;BME280;28421;51.030;4.006;2023-03-14T08:57:10;99659.94;;;6.05;91.76
29417;BME280;28421;51.030;4.006;2023-03-14T08:59:36;99659.59;;;6.08;92.54
29417;BME280;28421;51.030;4.006;2023-03-14T09:02:02;99679.56;;;6.28;92.49
29417;BME280;28421;51.030;4.006;2023-03-14T09:04:31;99684.56;;;6.31;93.13
29417;BME280;28421;51.030;4.006;2023-03-14T09:06:57;99690.88;;;6.30;93.47
29417;BME280;28421;51.030;4.006;2023-03-14T09:09:24;99700.03;;;6.36;93.12
29417;BME280;28421;51.030;4.006;2023-03-14T09:11:53;99713.41;;;6.36;92.54
29417;BME280;28421;51.030;4.006;2023-03-14T09:14:18;99696.97;;;6.08;89.75
29417;BME280;28421;51.030;4.006;2023-03-14T09:16:44;99701.50;;;5.99;89.77
29417;BME280;28421;51.030;4.006;2023-03-14T09:19:09;99752.91;;;6.40;89.02
29417;BME280;28421;51.030;4.006;2023-03-14T09:21:35;99709.25;;;6.25;89.74
29417;BME280;28421;51.030;4.006;2023-03-14T09:24:01;99733.91;;;6.43;89.40
29417;BME280;28421;51.030;4.006;2023-03-14T09:26:27;99763.28;;;6.75;90.40
29417;BME280;28421;51.030;4.006;2023-03-14T09:28:52;99777.75;;;6.88;89.96
29417;BME280;28421;51.030;4.006;2023-03-14T09:31:17;99764.66;;;6.70;88.57
29417;BME280;28421;51.030;4.006;2023-03-14T09:33:43;99787.03;;;6.69;88.73
29417;BME280;28421;51.030;4.006;2023-03-14T09:36:09;99827.94;;;6.70;88.86
29417;BME280;28421;51.030;4.006;2023-03-14T09:38:35;99786.75;;;6.56;89.44
29417;BME280;28421;51.030;4.006;2023-03-14T09:41:01;99787.97;;;6.29;90.01
29417;BME280;28421;51.030;4.006;2023-03-14T09:43:30;99833.47;;;6.60;91.19
29417;BME280;28421;51.030;4.006;2023-03-14T09:45:57;99852.00;;;6.54;91.60
29417;BME280;28421;51.030;4.006;2023-03-14T09:48:27;99846.06;;;6.11;91.62
29417;BME280;28421;51.030;4.006;2023-03-14T09:50:56;99876.25;;;6.28;92.91
29417;BME280;28421;51.030;4.006;2023-03-14T09:53:43;99826.34;;;5.71;93.50
29417;BME280;28421;51.030;4.006;2023-03-14T09:59:00;99871.38;;;5.74;93.82
29417;BME280;28421;51.030;4.006;2023-03-14T10:01:31;99898.69;;;5.68;93.61
29417;BME280;28421;51.030;4.006;2023-03-14T10:04:00;99918.69;;;5.64;93.24
29417;BME280;28421;51.030;4.006;2023-03-14T10:06:29;99908.16;;;5.54;91.70
29417;BME280;28421;51.030;4.006;2023-03-14T10:08:55;99885.47;;;5.42;91.67
29417;BME280;28421;51.030;4.006;2023-03-14T10:11:23;99918.53;;;5.65;91.93
29417;BME280;28421;51.030;4.006;2023-03-14T10:16:32;99946.66;;;5.52;92.18
29417;BME280;28421;51.030;4.006;2023-03-14T10:19:04;99948.78;;;5.40;91.67
29417;BME280;28421;51.030;4.006;2023-03-14T10:21:30;99979.50;;;5.52;92.34
29417;BME280;28421;51.030;4.006;2023-03-14T10:24:27;99995.66;;;5.59;92.35
29417;BME280;28421;51.030;4.006;2023-03-14T10:26:57;99957.53;;;5.24;91.92
29417;BME280;28421;51.030;4.006;2023-03-14T10:29:23;100010.47;;;5.53;91.64
29417;BME280;28421;51.030;4.006;2023-03-14T10:32:00;99975.19;;;5.25;91.13
29417;BME280;28421;51.030;4.006;2023-03-14T10:34:30;100028.59;;;5.41;90.98
29417;BME280;28421;51.030;4.006;2023-03-14T10:37:05;100026.66;;;5.52;92.09
29417;BME280;28421;51.030;4.006;2023-03-14T10:39:45;100018.72;;;5.34;91.72
29417;BME280;28421;51.030;4.006;2023-03-14T10:42:16;100025.91;;;5.41;92.47
29417;BME280;28421;51.030;4.006;2023-03-14T10:44:43;100014.28;;;5.16;92.91
29417;BME280;28421;51.030;4.006;2023-03-14T10:47:19;100074.25;;;5.46;93.20
29417;BME280;28421;51.030;4.006;2023-03-14T10:49:47;100043.75;;;5.41;94.18
29417;BME280;28421;51.030;4.006;2023-03-14T10:54:38;100049.50;;;5.28;94.36
29417;BME280;28421;51.030;4.006;2023-03-14T10:57:04;100065.56;;;5.36;94.94
29417;BME280;28421;51.030;4.006;2023-03-14T10:59:37;100097.69;;;5.35;94.70
29417;BME280;28421;51.030;4.006;2023-03-14T11:07:55;100096.72;;;5.36;95.21
29417;BME280;28421;51.030;4.006;2023-03-14T11:10:35;100127.66;;;5.89;95.57
29417;BME280;28421;51.030;4.006;2023-03-14T11:13:25;100132.97;;;5.89;95.10
29417;BME280;28421;51.030;4.006;2023-03-14T11:16:15;100119.56;;;5.98;95.70
29417;BME280;28421;51.030;4.006;2023-03-14T11:30:21;100169.22;;;6.76;91.85
29417;BME280;28421;51.030;4.006;2023-03-14T11:35:26;100162.03;;;6.77;92.09
29417;BME280;28421;51.030;4.006;2023-03-14T11:38:19;100165.53;;;6.69;91.94
29417;BME280;28421;51.030;4.006;2023-03-14T11:40:51;100179.41;;;6.30;91.96
29417;BME280;28421;51.030;4.006;2023-03-14T11:43:40;100184.53;;;6.58;92.28
29417;BME280;28421;51.030;4.006;2023-03-14T11:49:13;100195.91;;;6.68;92.75
29417;BME280;28421;51.030;4.006;2023-03-14T11:51:46;100187.69;;;6.53;92.18
29417;BME280;28421;51.030;4.006;2023-03-14T11:57:14;100227.28;;;6.23;91.58
29417;BME280;28421;51.030;4.006;2023-03-14T11:59:58;100252.78;;;6.52;91.55
29417;BME280;28421;51.030;4.006;2023-03-14T12:08:12;100265.44;;;7.01;89.12
29417;BME280;28421;51.030;4.006;2023-03-14T12:10:51;100274.00;;;7.12;87.26
29417;BME280;28421;51.030;4.006;2023-03-14T12:13:19;100243.22;;;6.92;87.06
29417;BME280;28421;51.030;4.006;2023-03-14T12:15:59;100251.59;;;6.89;85.31
29417;BME280;28421;51.030;4.006;2023-03-14T12:18:29;100253.28;;;7.06;85.54
29417;BME280;28421;51.030;4.006;2023-03-14T12:20:58;100285.41;;;7.22;84.32
29417;BME280;28421;51.030;4.006;2023-03-14T12:23:26;100270.50;;;7.20;85.08
29417;BME280;28421;51.030;4.006;2023-03-14T12:28:36;100259.13;;;6.51;85.35
29417;BME280;28421;51.030;4.006;2023-03-14T12:45:25;100328.31;;;7.21;84.40
29417;BME280;28421;51.030;4.006;2023-03-14T12:50:53;100293.41;;;7.14;81.79
29417;BME280;28421;51.030;4.006;2023-03-14T12:58:50;100344.81;;;7.00;81.95
29417;BME280;28421;51.030;4.006;2023-03-14T13:01:20;100357.59;;;6.54;78.85
29417;BME280;28421;51.030;4.006;2023-03-14T13:03:51;100382.75;;;6.43;77.01
29417;BME280;28421;51.030;4.006;2023-03-14T13:06:49;100405.72;;;6.36;75.25
29417;BME280;28421;51.030;4.006;2023-03-14T13:12:11;100420.09;;;6.00;75.00
29417;BME280;28421;51.030;4.006;2023-03-14T13:14:43;100383.50;;;5.74;72.66
29417;BME280;28421;51.030;4.006;2023-03-14T13:17:11;100409.94;;;5.85;70.47
29417;BME280;28421;51.030;4.006;2023-03-14T13:19:37;100395.63;;;5.86;72.10
29417;BME280;28421;51.030;4.006;2023-03-14T13:22:06;100402.81;;;6.04;72.03
29417;BME280;28421;51.030;4.006;2023-03-14T13:24:40;100422.69;;;6.27;72.42
29417;BME280;28421;51.030;4.006;2023-03-14T13:27:15;100428.09;;;6.35;70.57
29417;BME280;28421;51.030;4.006;2023-03-14T13:29:43;100424.97;;;6.22;67.72
29417;BME280;28421;51.030;4.006;2023-03-14T13:32:26;100427.88;;;6.11;67.64
29417;BME280;28421;51.030;4.006;2023-03-14T13:34:55;100402.56;;;5.97;65.18
29417;BME280;28421;51.030;4.006;2023-03-14T13:37:23;100461.03;;;6.44;67.15
29417;BME280;28421;51.030;4.006;2023-03-14T13:39:54;100434.47;;;6.42;67.39
29417;BME280;28421;51.030;4.006;2023-03-14T13:42:27;100447.88;;;6.68;65.94
29417;BME280;28421;51.030;4.006;2023-03-14T13:44:56;100469.13;;;6.78;63.69
29417;BME280;28421;51.030;4.006;2023-03-14T13:47:24;100452.25;;;6.78;63.61
29417;BME280;28421;51.030;4.006;2023-03-14T13:49:50;100516.94;;;7.07;61.69
29417;BME280;28421;51.030;4.006;2023-03-14T13:52:36;100510.78;;;7.15;62.05
29417;BME280;28421;51.030;4.006;2023-03-14T13:55:05;100484.63;;;7.01;61.54
29417;BME280;28421;51.030;4.006;2023-03-14T13:57:49;100530.47;;;6.88;57.08
29417;BME280;28421;51.030;4.006;2023-03-14T14:00:24;100530.94;;;6.83;56.94
29417;BME280;28421;51.030;4.006;2023-03-14T14:02:54;100511.84;;;6.52;56.12
29417;BME280;28421;51.030;4.006;2023-03-14T14:05:21;100521.84;;;6.50;58.76
29417;BME280;28421;51.030;4.006;2023-03-14T14:07:48;100559.78;;;6.36;57.33
29417;BME280;28421;51.030;4.006;2023-03-14T14:10:14;100586.19;;;6.39;58.11
29417;BME280;28421;51.030;4.006;2023-03-14T14:13:01;100612.63;;;6.05;58.21
29417;BME280;28421;51.030;4.006;2023-03-14T14:15:31;100552.13;;;5.31;58.09
29417;BME280;28421;51.030;4.006;2023-03-14T14:18:02;100620.53;;;5.59;59.87
29417;BME280;28421;51.030;4.006;2023-03-14T14:20:35;100623.38;;;5.48;61.77
29417;BME280;28421;51.030;4.006;2023-03-14T14:23:03;100672.34;;;5.47;60.43
29417;BME280;28421;51.030;4.006;2023-03-14T14:25:30;100654.00;;;5.44;59.04
29417;BME280;28421;51.030;4.006;2023-03-14T14:27:56;100616.28;;;5.19;56.32
29417;BME280;28421;51.030;4.006;2023-03-14T14:30:26;100633.66;;;5.33;56.02
29417;BME280;28421;51.030;4.006;2023-03-14T14:32:52;100661.13;;;5.53;58.16
29417;BME280;28421;51.030;4.006;2023-03-14T14:35:23;100677.88;;;5.92;60.78
29417;BME280;28421;51.030;4.006;2023-03-14T14:37:49;100665.34;;;6.03;61.81
29417;BME280;28421;51.030;4.006;2023-03-14T14:40:23;100649.31;;;6.03;60.52
29417;BME280;28421;51.030;4.006;2023-03-14T14:42:50;100685.75;;;6.21;57.06
29417;BME280;28421;51.030;4.006;2023-03-14T14:45:27;100679.63;;;6.11;54.99
29417;BME280;28421;51.030;4.006;2023-03-14T14:48:06;100709.97;;;6.10;51.95
29417;BME280;28421;51.030;4.006;2023-03-14T14:50:38;100646.38;;;6.06;56.08
29417;BME280;28421;51.030;4.006;2023-03-14T14:53:41;100718.00;;;6.38;55.49
29417;BME280;28421;51.030;4.006;2023-03-14T14:56:16;100660.63;;;6.42;57.91
29417;BME280;28421;51.030;4.006;2023-03-14T14:58:44;100680.66;;;6.56;58.96
29417;BME280;28421;51.030;4.006;2023-03-14T15:01:14;100722.41;;;6.57;54.69
29417;BME280;28421;51.030;4.006;2023-03-14T15:03:43;100733.31;;;6.63;53.57
29417;BME280;28421;51.030;4.006;2023-03-14T15:06:11;100697.59;;;6.09;53.53
29417;BME280;28421;51.030;4.006;2023-03-14T15:08:37;100746.00;;;6.61;54.93
29417;BME280;28421;51.030;4.006;2023-03-14T15:11:03;100737.53;;;6.38;53.70
29417;BME280;28421;51.030;4.006;2023-03-14T15:13:28;100715.00;;;6.13;51.51
29417;BME280;28421;51.030;4.006;2023-03-14T15:15:54;100746.47;;;6.19;52.36
29417;BME280;28421;51.030;4.006;2023-03-14T15:18:24;100743.72;;;6.39;57.10
29417;BME280;28421;51.030;4.006;2023-03-14T15:20:51;100683.06;;;5.94;56.32
29417;BME280;28421;51.030;4.006;2023-03-14T15:23:19;100731.59;;;6.44;57.95
29417;BME280;28421;51.030;4.006;2023-03-14T15:25:45;100768.00;;;6.18;55.70
29417;BME280;28421;51.030;4.006;2023-03-14T15:28:13;100765.19;;;6.10;55.49
29417;BME280;28421;51.030;4.006;2023-03-14T15:30:39;100763.50;;;6.09;57.29
29417;BME280;28421;51.030;4.006;2023-03-14T15:33:05;100721.69;;;5.90;59.07
29417;BME280;28421;51.030;4.006;2023-03-14T15:35:37;100741.47;;;5.97;58.86
29417;BME280;28421;51.030;4.006;2023-03-14T15:38:02;100708.91;;;5.84;57.73
29417;BME280;28421;51.030;4.006;2023-03-14T15:40:28;100788.59;;;6.26;58.66
29417;BME280;28421;51.030;4.006;2023-03-14T15:42:54;100768.06;;;6.26;59.20
29417;BME280;28421;51.030;4.006;2023-03-14T15:45:19;100773.13;;;6.29;58.41
29417;BME280;28421;51.030;4.006;2023-03-14T15:47:45;100772.44;;;6.27;58.01
29417;BME280;28421;51.030;4.006;2023-03-14T15:50:10;100788.25;;;6.38;57.49
29417;BME280;28421;51.030;4.006;2023-03-14T15:52:36;100775.69;;;6.21;58.41
29417;BME280;28421;51.030;4.006;2023-03-14T15:55:01;100779.06;;;6.13;58.12
29417;BME280;28421;51.030;4.006;2023-03-14T15:57:27;100790.09;;;6.38;60.43
29417;BME280;28421;51.030;4.006;2023-03-14T15:59:52;100785.91;;;6.35;58.51
29417;BME280;28421;51.030;4.006;2023-03-14T16:02:18;100808.13;;;6.63;59.42
29417;BME280;28421;51.030;4.006;2023-03-14T16:04:43;100811.34;;;6.67;60.10
29417;BME280;28421;51.030;4.006;2023-03-14T16:07:09;100779.94;;;6.51;59.94
29417;BME280;28421;51.030;4.006;2023-03-14T16:09:35;100813.97;;;6.49;58.91
29417;BME280;28421;51.030;4.006;2023-03-14T16:12:00;100811.56;;;6.46;59.60
29417;BME280;28421;51.030;4.006;2023-03-14T16:14:26;100786.84;;;6.44;58.56
29417;BME280;28421;51.030;4.006;2023-03-14T16:16:52;100847.34;;;6.72;57.50
29417;BME280;28421;51.030;4.006;2023-03-14T16:19:18;100817.84;;;6.64;58.79
29417;BME280;28421;51.030;4.006;2023-03-14T16:21:43;100824.97;;;6.73;57.54
29417;BME280;28421;51.030;4.006;2023-03-14T16:24:09;100857.91;;;6.64;56.62
29417;BME280;28421;51.030;4.006;2023-03-14T16:26:34;100831.59;;;6.32;56.63
29417;BME280;28421;51.030;4.006;2023-03-14T16:29:01;100842.34;;;6.50;59.13
29417;BME280;28421;51.030;4.006;2023-03-14T16:31:27;100832.88;;;6.28;57.45
29417;BME280;28421;51.030;4.006;2023-03-14T16:33:53;100854.22;;;6.28;57.43
29417;BME280;28421;51.030;4.006;2023-03-14T16:36:18;100860.03;;;6.14;57.29
29417;BME280;28421;51.030;4.006;2023-03-14T16:38:44;100873.91;;;6.27;58.15
29417;BME280;28421;51.030;4.006;2023-03-14T16:41:15;100896.41;;;6.15;57.58
29417;BME280;28421;51.030;4.006;2023-03-14T16:43:42;100884.06;;;6.14;56.57
29417;BME280;28421;51.030;4.006;2023-03-14T16:46:14;100888.09;;;6.28;58.40
29417;BME280;28421;51.030;4.006;2023-03-14T16:48:40;100886.53;;;6.35;59.08
29417;BME280;28421;51.030;4.006;2023-03-14T16:51:06;100918.72;;;6.33;58.90
29417;BME280;28421;51.030;4.006;2023-03-14T16:53:32;100904.94;;;6.28;57.81
29417;BME280;28421;51.030;4.006;2023-03-14T16:55:57;100921.09;;;6.36;59.33
29417;BME280;28421;51.030;4.006;2023-03-14T16:58:23;100907.59;;;6.38;59.17
29417;BME280;28421;51.030;4.006;2023-03-14T17:00:49;100933.91;;;6.33;58.17
29417;BME280;28421;51.030;4.006;2023-03-14T17:03:15;100924.34;;;6.30;59.36
29417;BME280;28421;51.030;4.006;2023-03-14T17:05:45;100920.41;;;6.05;58.15
29417;BME280;28421;51.030;4.006;2023-03-14T17:08:12;100913.25;;;6.15;57.70
29417;BME280;28421;51.030;4.006;2023-03-14T17:10:37;100949.78;;;6.25;57.20
29417;BME280;28421;51.030;4.006;2023-03-14T17:13:03;100941.63;;;6.16;57.72
29417;BME280;28421;51.030;4.006;2023-03-14T17:15:29;100981.81;;;6.25;56.77
29417;BME280;28421;51.030;4.006;2023-03-14T17:17:55;100999.69;;;6.14;57.02
29417;BME280;28421;51.030;4.006;2023-03-14T17:20:20;100951.59;;;5.85;57.21
29417;BME280;28421;51.030;4.006;2023-03-14T17:22:46;100959.16;;;5.90;57.94
29417;BME280;28421;51.030;4.006;2023-03-14T17:25:11;100989.25;;;5.92;56.55
29417;BME280;28421;51.030;4.006;2023-03-14T17:27:36;100944.38;;;5.66;57.06
29417;BME280;28421;51.030;4.006;2023-03-14T17:30:03;100963.47;;;5.71;57.18
29417;BME280;28421;51.030;4.006;2023-03-14T17:32:29;100946.06;;;5.58;58.25
29417;BME280;28421;51.030;4.006;2023-03-14T17:34:54;100978.81;;;5.79;58.83
29417;BME280;28421;51.030;4.006;2023-03-14T17:37:20;101011.66;;;5.70;59.41
29417;BME280;28421;51.030;4.006;2023-03-14T17:39:45;100988.84;;;5.46;58.48
29417;BME280;28421;51.030;4.006;2023-03-14T17:42:11;100961.41;;;5.25;58.30
29417;BME280;28421;51.030;4.006;2023-03-14T17:44:36;101003.47;;;5.52;60.19
29417;BME280;28421;51.030;4.006;2023-03-14T17:47:02;101014.63;;;5.36;59.38
29417;BME280;28421;51.030;4.006;2023-03-14T17:49:28;101062.44;;;5.59;59.70
29417;BME280;28421;51.030;4.006;2023-03-14T17:51:53;101029.16;;;5.53;60.15
29417;BME280;28421;51.030;4.006;2023-03-14T17:54:18;101047.72;;;5.64;60.12
29417;BME280;28421;51.030;4.006;2023-03-14T17:56:44;101064.44;;;5.76;60.80
29417;BME280;28421;51.030;4.006;2023-03-14T17:59:10;101063.03;;;5.72;59.72
29417;BME280;28421;51.030;4.006;2023-03-14T18:01:36;101067.34;;;5.63;60.26
29417;BME280;28421;51.030;4.006;2023-03-14T18:04:02;101004.72;;;5.17;60.05
29417;BME280;28421;51.030;4.006;2023-03-14T18:06:27;101015.72;;;5.34;59.92
29417;BME280;28421;51.030;4.006;2023-03-14T18:08:55;101053.13;;;5.43;59.59
29417;BME280;28421;51.030;4.006;2023-03-14T18:11:20;101026.44;;;5.13;62.36
29417;BME280;28421;51.030;4.006;2023-03-14T18:13:46;101087.66;;;5.45;61.60
29417;BME280;28421;51.030;4.006;2023-03-14T18:16:12;101095.66;;;5.45;61.36
29417;BME280;28421;51.030;4.006;2023-03-14T18:18:48;101063.81;;;5.22;63.10
29417;BME280;28421;51.030;4.006;2023-03-14T18:21:36;101077.53;;;5.18;64.97
29417;BME280;28421;51.030;4.006;2023-03-14T18:24:04;101068.84;;;4.95;66.66
29417;BME280;28421;51.030;4.006;2023-03-14T18:26:30;101094.31;;;5.09;67.71
29417;BME280;28421;51.030;4.006;2023-03-14T18:28:55;101086.13;;;4.80;68.77
29417;BME280;28421;51.030;4.006;2023-03-14T18:31:21;101101.13;;;5.02;69.34
29417;BME280;28421;51.030;4.006;2023-03-14T18:33:49;101124.47;;;5.09;69.50
29417;BME280;28421;51.030;4.006;2023-03-14T18:36:17;101103.31;;;4.76;70.27
29417;BME280;28421;51.030;4.006;2023-03-14T18:38:43;101147.78;;;4.64;71.98
29417;BME280;28421;51.030;4.006;2023-03-14T18:41:12;101149.03;;;4.60;72.95
29417;BME280;28421;51.030;4.006;2023-03-14T18:43:38;101157.97;;;4.70;73.57
29417;BME280;28421;51.030;4.006;2023-03-14T18:46:12;101056.28;;;4.01;73.99
29417;BME280;28421;51.030;4.006;2023-03-14T18:48:41;101157.41;;;4.55;74.56
29417;BME280;28421;51.030;4.006;2023-03-14T18:51:09;101113.81;;;4.24;74.97
29417;BME280;28421;51.030;4.006;2023-03-14T18:53:53;101059.78;;;4.01;74.76
29417;BME280;28421;51.030;4.006;2023-03-14T19:00:14;101134.03;;;4.15;76.59
29417;BME280;28421;51.030;4.006;2023-03-14T19:02:50;101149.25;;;4.24;77.29
29417;BME280;28421;51.030;4.006;2023-03-14T19:05:19;101164.59;;;4.32;77.52
29417;BME280;28421;51.030;4.006;2023-03-14T19:07:49;101151.44;;;4.19;78.03
29417;BME280;28421;51.030;4.006;2023-03-14T19:10:19;101165.31;;;4.34;78.19
29417;BME280;28421;51.030;4.006;2023-03-14T19:12:48;101122.31;;;3.95;78.40
29417;BME280;28421;51.030;4.006;2023-03-14T19:15:16;101107.56;;;3.80;78.76
29417;BME280;28421;51.030;4.006;2023-03-14T19:17:59;101123.91;;;3.87;79.15
29417;BME280;28421;51.030;4.006;2023-03-14T19:24:01;101184.81;;;4.12;80.61
29417;BME280;28421;51.030;4.006;2023-03-14T19:26:36;101124.38;;;3.81;80.60
29417;BME280;28421;51.030;4.006;2023-03-14T19:29:02;101178.91;;;4.20;80.71
29417;BME280;28421;51.030;4.006;2023-03-14T19:31:28;101161.72;;;4.13;80.61
29417;BME280;28421;51.030;4.006;2023-03-14T19:33:58;101195.81;;;4.30;80.52
29417;BME280;28421;51.030;4.006;2023-03-14T19:36:28;101159.44;;;4.08;80.96